CYYY

Mont Joli Airport

Mont-Joli, Quebec, Canada
METAR CYYY 211300Z 03004KT 30SM FEW260 23/16 A3015 RMK CI2 SLP212 DENSITY ALT 900FT
Observed Flight Rules
Jul-21 @ 13:00 UTC (44 minutes ago) Visual Flight Rules
Wind Visibility Clouds
30° at 4 knots 30 miles
  • Few at 26,000' AGL
Temperatures Readings
Current 23°C / 73°F
Dewpoint 16°C / 61°F
Humidity 65%
Altimeter 30.15" Hg
Pressure 1021.2 hPa
Elevation 52
METAR CYYY 211300Z 03004KT 30SM FEW260 23/16 A3015 RMK CI2 SLP212 DENSITY ALT 900FT
Observed Flight Rules
Jul-21 @ 13:00 UTC
(44 minutes ago)
VFR
Wind Visibility
30° at 4 knots 30 miles
Clouds
  • Few at 26,000' AGL
Temperature Dewpoint
23°C / 73°F 16°C / 61°F
Humidity Altimeter Pressure
65% 30.15" Hg 1021.2 hPa